Accueil Rechercher Galerie photos Envoyer une photo Forum Page Facebook Liens Contact


F-GSKY - Boeing 747-312

Boeing 747-312 - F-GSKY

Appareil Boeing 747-312 Immatriculation F-GSKY
Aérodrome Brest - LFRB Photographe Yannick MARHADOUR - Yann (Bzh)
Date 12.01.2006 Publié 12.01.2006
Commentaires
LFRB 120930Z 16009KT 0200 R26/0600N FG VV/// 03/03 Q1027 NOSIG

Envoyer un message

Auteur Date 30-03-2020 17:26:09
Mail IP 10.147.15.4
Merci de bien vouloir saisir le code ci-dessus afin de valider votre commentaire :


 Visites :